createdAt,value
2019-03-10T00:00:32.724Z,38.05
2019-03-10T00:02:58.877Z,36.88
2019-03-10T00:05:25.027Z,38.10
2019-03-10T00:07:51.231Z,37.65
2019-03-10T00:10:17.426Z,38.67
2019-03-10T00:12:43.663Z,38.34
2019-03-10T00:15:11.256Z,37.78
2019-03-10T00:17:37.411Z,36.61
2019-03-10T00:20:08.986Z,39.29
2019-03-10T00:22:35.173Z,38.05
2019-03-10T00:25:01.633Z,36.44
2019-03-10T00:27:28.084Z,37.58
2019-03-10T00:29:54.277Z,39.05
2019-03-10T00:32:20.422Z,37.86
2019-03-10T00:34:46.592Z,38.46
2019-03-10T00:37:12.785Z,37.11
2019-03-10T00:39:51.410Z,38.59
2019-03-10T00:42:37.934Z,37.66
2019-03-10T00:45:24.376Z,37.81
2019-03-10T00:48:11.721Z,35.62
2019-03-10T00:51:01.060Z,34.63
2019-03-10T00:53:27.238Z,34.62
2019-03-10T00:55:53.396Z,34.77
2019-03-10T00:58:19.570Z,35.30
2019-03-10T01:00:45.755Z,34.21
2019-03-10T01:03:11.910Z,33.73
2019-03-10T01:05:38.192Z,32.74
2019-03-10T01:08:04.751Z,32.72
2019-03-10T01:10:31.110Z,33.21
2019-03-10T01:12:57.275Z,33.29
2019-03-10T01:15:23.470Z,34.02
2019-03-10T01:17:51.523Z,34.15
2019-03-10T01:20:17.795Z,34.81
2019-03-10T01:22:43.976Z,34.98
2019-03-10T01:25:11.437Z,33.25
2019-03-10T01:27:37.596Z,32.36
2019-03-10T01:30:15.960Z,32.47
2019-03-10T01:33:14.571Z,32.24
2019-03-10T01:35:42.591Z,32.00
2019-03-10T01:38:08.929Z,31.89
2019-03-10T01:40:35.088Z,31.27
2019-03-10T01:43:01.379Z,30.97
2019-03-10T01:45:27.545Z,31.42
2019-03-10T01:47:53.699Z,31.62
2019-03-10T01:50:19.884Z,31.35
2019-03-10T01:52:46.041Z,31.96
2019-03-10T01:55:12.196Z,32.55
2019-03-10T01:57:38.499Z,31.47
2019-03-10T02:00:13.714Z,31.41
2019-03-10T02:02:39.903Z,32.74
2019-03-10T02:05:06.163Z,34.42
2019-03-10T02:07:32.324Z,33.78
2019-03-10T02:09:58.516Z,33.76
2019-03-10T02:12:24.771Z,35.09
2019-03-10T02:14:50.925Z,35.59
2019-03-10T02:17:17.216Z,35.49
2019-03-10T02:19:43.376Z,36.75
2019-03-10T02:22:09.526Z,36.43
2019-03-10T02:24:35.710Z,36.79
2019-03-10T02:27:01.876Z,37.48
2019-03-10T02:29:28.145Z,36.63
2019-03-10T02:31:54.327Z,36.58
2019-03-10T02:34:20.489Z,36.83
2019-03-10T02:36:46.702Z,35.84
2019-03-10T02:39:12.883Z,38.35
2019-03-10T02:41:39.036Z,37.07
2019-03-10T02:44:05.191Z,36.51
2019-03-10T02:46:31.389Z,37.08
2019-03-10T02:48:57.649Z,37.37
2019-03-10T02:51:23.818Z,37.28
2019-03-10T02:53:50.005Z,37.14
2019-03-10T02:56:16.162Z,37.93
2019-03-10T02:58:42.311Z,37.06
2019-03-10T03:01:08.614Z,36.71
2019-03-10T03:03:34.767Z,36.43
2019-03-10T03:06:00.919Z,37.05
2019-03-10T03:08:27.131Z,35.96
2019-03-10T03:10:53.274Z,35.27
2019-03-10T03:13:19.526Z,34.84
2019-03-10T03:15:45.848Z,34.50
2019-03-10T03:18:12.016Z,35.10
2019-03-10T03:20:38.173Z,33.29
2019-03-10T03:23:04.368Z,34.03
2019-03-10T03:25:30.518Z,34.23
2019-03-10T03:27:56.774Z,34.84
2019-03-10T03:30:22.985Z,34.69
2019-03-10T03:32:49.124Z,35.31
2019-03-10T03:35:46.578Z,35.03
2019-03-10T03:38:14.349Z,35.22
2019-03-10T03:40:46.872Z,35.45
2019-03-10T03:43:13.070Z,35.03
2019-03-10T03:45:39.251Z,35.63
2019-03-10T03:48:05.418Z,34.44
2019-03-10T03:50:31.709Z,35.85
2019-03-10T03:52:57.860Z,35.70
2019-03-10T03:55:24.012Z,35.29
2019-03-10T03:57:50.324Z,35.12
2019-03-10T04:00:16.479Z,34.82
2019-03-10T04:02:42.628Z,34.64
2019-03-10T04:05:09.329Z,34.18
2019-03-10T04:07:35.466Z,34.86
2019-03-10T04:10:02.127Z,33.96
2019-03-10T04:12:28.332Z,34.74
2019-03-10T04:14:54.499Z,34.97
2019-03-10T04:17:20.673Z,34.19
2019-03-10T04:19:46.961Z,34.07
2019-03-10T04:22:13.130Z,33.71
2019-03-10T04:24:39.292Z,33.64
2019-03-10T04:27:05.478Z,33.02
2019-03-10T04:29:31.649Z,32.92
2019-03-10T04:31:57.814Z,32.40
2019-03-10T04:34:24.103Z,33.36
2019-03-10T04:36:50.261Z,33.18
2019-03-10T04:39:16.427Z,32.01
2019-03-10T04:41:42.617Z,31.32
2019-03-10T04:44:08.878Z,32.85
2019-03-10T04:46:35.129Z,32.37
2019-03-10T04:49:01.336Z,32.20
2019-03-10T04:51:27.499Z,32.79
2019-03-10T04:53:53.655Z,32.38
2019-03-10T04:56:27.452Z,32.16
2019-03-10T04:58:53.713Z,32.97
2019-03-10T05:01:20.675Z,31.81
2019-03-10T05:03:46.880Z,31.38
2019-03-10T05:06:13.049Z,31.15
2019-03-10T05:08:39.190Z,32.72
2019-03-10T05:11:05.377Z,34.07
2019-03-10T05:13:31.540Z,32.32
2019-03-10T05:15:57.700Z,32.51
2019-03-10T05:18:23.993Z,31.81
2019-03-10T05:20:50.150Z,32.05
2019-03-10T05:23:29.057Z,31.51
2019-03-10T05:25:55.432Z,31.61
2019-03-10T05:28:21.586Z,30.65
2019-03-10T05:30:47.792Z,30.45
2019-03-10T05:33:13.951Z,30.77
2019-03-10T05:35:40.110Z,28.78
2019-03-10T05:38:06.292Z,29.14
2019-03-10T05:40:33.444Z,27.98
2019-03-10T05:42:59.601Z,29.03
2019-03-10T05:45:25.788Z,27.10
2019-03-10T05:47:52.070Z,27.26
2019-03-10T05:50:18.323Z,25.68
2019-03-10T05:52:44.521Z,25.37
2019-03-10T05:55:10.675Z,24.81
2019-03-10T05:57:36.839Z,27.09
2019-03-10T06:00:06.034Z,24.87
2019-03-10T06:02:32.312Z,25.22
2019-03-10T06:04:58.467Z,25.05
2019-03-10T06:07:24.670Z,24.04
2019-03-10T06:09:50.824Z,24.01
2019-03-10T06:12:16.988Z,23.91
2019-03-10T06:14:43.177Z,24.37
2019-03-10T06:17:09.464Z,23.73
2019-03-10T06:19:35.726Z,25.15
2019-03-10T06:22:01.957Z,23.82
2019-03-10T06:24:28.177Z,23.59
2019-03-10T06:26:54.329Z,24.23
2019-03-10T06:29:20.523Z,23.76
2019-03-10T06:31:46.669Z,23.52
2019-03-10T06:34:12.818Z,23.40
2019-03-10T06:36:39.120Z,24.01
2019-03-10T06:39:05.382Z,24.61
2019-03-10T06:41:31.583Z,23.77
2019-03-10T06:43:57.940Z,25.77
2019-03-10T06:46:24.087Z,23.10
2019-03-10T06:48:50.253Z,23.28
2019-03-10T06:51:16.540Z,23.79
2019-03-10T06:53:42.694Z,24.59
2019-03-10T06:56:08.879Z,23.65
2019-03-10T06:58:35.039Z,24.07
2019-03-10T07:01:01.191Z,24.71
2019-03-10T07:03:27.350Z,24.13
2019-03-10T07:05:53.540Z,24.53
2019-03-10T07:08:19.823Z,23.20
2019-03-10T07:10:46.233Z,22.08
2019-03-10T07:13:12.442Z,24.89
2019-03-10T07:15:38.594Z,24.09
2019-03-10T07:18:04.764Z,23.87
2019-03-10T07:20:30.960Z,23.65
2019-03-10T07:22:57.110Z,23.85
2019-03-10T07:25:23.269Z,23.52
2019-03-10T07:27:56.966Z,22.81
2019-03-10T07:30:30.617Z,23.00
2019-03-10T07:33:04.313Z,22.18
2019-03-10T07:35:32.375Z,22.70
2019-03-10T07:38:03.253Z,24.43
2019-03-10T07:40:36.886Z,23.98
2019-03-10T07:43:16.969Z,23.60
2019-03-10T07:45:45.073Z,23.45
2019-03-10T07:48:24.954Z,22.55
2019-03-10T07:50:53.053Z,24.16
2019-03-10T07:53:39.009Z,23.98
2019-03-10T07:56:18.939Z,23.08
2019-03-10T07:58:58.837Z,22.34
2019-03-10T08:01:29.735Z,24.46
2019-03-10T08:03:57.858Z,23.03
2019-03-10T08:06:43.811Z,23.15
2019-03-10T08:09:17.653Z,22.08
2019-03-10T08:11:57.486Z,21.21
2019-03-10T08:14:25.565Z,22.97
2019-03-10T08:17:05.828Z,22.84
2019-03-10T08:19:33.883Z,23.74
2019-03-10T08:22:04.696Z,21.87
2019-03-10T08:24:32.784Z,22.88
2019-03-10T08:27:00.867Z,21.32
2019-03-10T08:29:34.537Z,22.37
2019-03-10T08:32:02.609Z,21.96
2019-03-10T08:34:33.446Z,21.03
2019-03-10T08:37:04.065Z,22.11
2019-03-10T08:39:50.137Z,21.67
2019-03-10T08:42:21.042Z,20.29
2019-03-10T08:44:55.025Z,20.52
2019-03-10T08:47:41.427Z,20.81
2019-03-10T08:50:09.802Z,21.17
2019-03-10T08:52:37.859Z,20.86
2019-03-10T08:55:13.947Z,20.79
2019-03-10T08:57:56.825Z,20.49
2019-03-10T09:00:27.492Z,19.96
2019-03-10T09:02:58.066Z,20.90
2019-03-10T09:05:28.927Z,20.51
2019-03-10T09:08:05.987Z,19.30
2019-03-10T09:10:34.051Z,21.45
2019-03-10T09:13:02.121Z,19.42
2019-03-10T09:15:46.945Z,19.60
2019-03-10T09:18:31.505Z,19.48
2019-03-10T09:21:11.220Z,19.34
2019-03-10T09:23:41.784Z,19.26
2019-03-10T09:26:24.685Z,20.05
2019-03-10T09:28:55.769Z,20.52
2019-03-10T09:31:23.844Z,19.40
2019-03-10T09:34:08.174Z,19.25
2019-03-10T09:36:44.918Z,20.72
2019-03-10T09:39:24.895Z,19.06
2019-03-10T09:41:52.955Z,18.85
2019-03-10T09:44:37.830Z,18.78
2019-03-10T09:47:05.940Z,18.55
2019-03-10T09:49:36.619Z,18.98
2019-03-10T09:55:02.111Z,18.43
2019-03-10T09:57:46.800Z,19.64
2019-03-10T10:00:26.956Z,17.94
2019-03-10T10:03:11.379Z,18.97
2019-03-10T10:05:39.447Z,19.72
2019-03-10T10:08:07.505Z,19.02
2019-03-10T10:10:38.699Z,19.81
2019-03-10T10:13:21.612Z,19.69
2019-03-10T10:15:55.343Z,18.99
2019-03-10T10:18:26.205Z,18.54
2019-03-10T10:20:59.923Z,17.62
2019-03-10T10:23:28.059Z,17.48
2019-03-10T10:25:58.697Z,16.83
2019-03-10T10:28:38.688Z,18.27
2019-03-10T10:31:15.298Z,18.27
2019-03-10T10:33:43.493Z,17.09
2019-03-10T10:36:11.550Z,16.75
2019-03-10T10:38:48.180Z,16.90
2019-03-10T10:41:22.306Z,17.62
2019-03-10T10:44:02.088Z,16.67
2019-03-10T10:46:38.883Z,15.78
2019-03-10T10:49:09.594Z,15.18
2019-03-10T10:51:55.913Z,15.93
2019-03-10T10:54:26.605Z,16.17
2019-03-10T10:56:54.699Z,15.88
2019-03-10T10:59:22.743Z,15.45
2019-03-10T11:04:36.585Z,16.37
2019-03-10T11:07:10.275Z,15.61
2019-03-10T11:09:54.708Z,15.16
2019-03-10T11:12:28.508Z,15.37
2019-03-10T11:15:02.547Z,15.81
2019-03-10T11:17:30.640Z,15.97
2019-03-10T11:20:13.556Z,15.49
2019-03-10T11:22:53.959Z,16.72
2019-03-10T11:25:22.007Z,15.19
2019-03-10T11:27:50.072Z,15.40
2019-03-10T11:30:20.704Z,15.29
2019-03-10T11:32:48.771Z,14.87
2019-03-10T11:35:22.628Z,15.91
2019-03-10T11:37:53.442Z,16.49
2019-03-10T11:40:27.062Z,15.57
2019-03-10T11:42:55.120Z,16.04
2019-03-10T11:45:35.049Z,15.88
2019-03-10T11:48:03.099Z,15.82
2019-03-10T11:50:33.742Z,15.74
2019-03-10T11:53:01.845Z,15.66
2019-03-10T11:55:29.903Z,15.66
2019-03-10T11:58:03.755Z,15.70
2019-03-10T12:03:43.209Z,15.76
2019-03-10T12:06:23.331Z,16.40
2019-03-10T12:09:00.229Z,15.27
2019-03-10T12:11:26.384Z,16.63
2019-03-10T12:13:52.537Z,16.13
2019-03-10T12:16:18.724Z,16.07
2019-03-10T12:18:44.886Z,15.67
2019-03-10T12:21:11.140Z,15.26
2019-03-10T12:23:37.441Z,15.63
2019-03-10T12:26:03.714Z,14.94
2019-03-10T12:28:29.856Z,15.57
2019-03-10T12:30:56.037Z,15.13
2019-03-10T12:33:22.200Z,15.19
2019-03-10T12:35:48.450Z,15.19
2019-03-10T12:38:14.769Z,15.01
2019-03-10T12:40:40.932Z,14.90
2019-03-10T12:43:07.092Z,15.19
2019-03-10T12:45:33.291Z,15.06
2019-03-10T12:47:59.543Z,14.96
2019-03-10T12:50:25.694Z,14.21
2019-03-10T12:52:51.929Z,14.27
2019-03-10T12:55:18.225Z,14.14
2019-03-10T12:57:44.366Z,13.82
2019-03-10T13:00:13.722Z,14.08
2019-03-10T13:02:40.131Z,14.46
2019-03-10T13:05:07.909Z,13.50
2019-03-10T13:07:34.193Z,13.79
2019-03-10T13:10:00.385Z,13.84
2019-03-10T13:12:26.503Z,13.92
2019-03-10T13:14:59.389Z,14.58
2019-03-10T13:17:21.142Z,14.01
2019-03-10T13:19:47.316Z,14.58
2019-03-10T13:22:13.608Z,14.72
2019-03-10T13:24:39.771Z,13.71
2019-03-10T13:27:05.923Z,14.53
2019-03-10T13:29:32.124Z,14.65
2019-03-10T13:31:58.285Z,14.15
2019-03-10T13:34:24.442Z,13.95
2019-03-10T13:36:50.641Z,13.79
2019-03-10T13:39:16.799Z,13.99
2019-03-10T13:41:42.951Z,13.91
2019-03-10T13:44:09.239Z,14.33
2019-03-10T13:46:35.498Z,13.77
2019-03-10T13:49:01.654Z,14.58
2019-03-10T13:51:27.849Z,13.82
2019-03-10T13:53:54.113Z,13.26
2019-03-10T13:56:20.272Z,14.68
2019-03-10T13:58:46.463Z,14.10
2019-03-10T14:01:12.721Z,13.17
2019-03-10T14:03:39.787Z,13.07
2019-03-10T14:06:06.038Z,13.29
2019-03-10T14:08:32.193Z,12.87
2019-03-10T14:10:58.364Z,12.67
2019-03-10T14:13:24.683Z,13.08
2019-03-10T14:15:50.834Z,12.82
2019-03-10T14:18:16.991Z,13.48
2019-03-10T14:20:43.195Z,13.53
2019-03-10T14:23:09.457Z,13.89
2019-03-10T14:25:35.613Z,13.26
2019-03-10T14:28:01.913Z,13.17
2019-03-10T14:30:28.177Z,14.16
2019-03-10T14:32:54.328Z,13.50
2019-03-10T14:35:20.514Z,13.45
2019-03-10T14:37:46.666Z,13.71
2019-03-10T14:40:18.223Z,13.52
2019-03-10T14:42:44.390Z,13.27
2019-03-10T14:45:13.448Z,13.53
2019-03-10T14:47:39.624Z,13.50
2019-03-10T14:50:08.804Z,13.59
2019-03-10T14:52:35.133Z,13.34
2019-03-10T14:55:01.338Z,13.83
2019-03-10T14:57:27.515Z,14.36
2019-03-10T14:59:53.666Z,14.50
2019-03-10T15:02:19.931Z,13.97
2019-03-10T15:04:46.139Z,13.59
2019-03-10T15:07:12.282Z,13.73
2019-03-10T15:09:38.442Z,13.78
2019-03-10T15:12:04.621Z,13.73
2019-03-10T15:14:30.939Z,14.04
2019-03-10T15:17:01.395Z,14.00
2019-03-10T15:19:25.288Z,14.17
2019-03-10T15:21:51.448Z,14.56
2019-03-10T15:24:17.607Z,14.92
2019-03-10T15:26:45.914Z,15.05
2019-03-10T15:29:11.855Z,14.63
2019-03-10T15:31:38.010Z,14.53
2019-03-10T15:34:04.201Z,14.23
2019-03-10T15:36:30.367Z,14.40
2019-03-10T15:38:56.627Z,14.59
2019-03-10T15:41:22.827Z,14.80
2019-03-10T15:43:48.980Z,15.09
2019-03-10T15:46:15.150Z,15.55
2019-03-10T15:48:41.334Z,16.17
2019-03-10T15:51:07.483Z,16.24
2019-03-10T15:53:33.644Z,16.62
2019-03-10T15:55:59.886Z,16.91
2019-03-10T15:58:26.048Z,17.06
2019-03-10T16:00:52.199Z,17.24
2019-03-10T16:03:18.390Z,17.45
2019-03-10T16:05:44.552Z,17.89
2019-03-10T16:08:10.707Z,18.18
2019-03-10T16:10:36.907Z,18.46
2019-03-10T16:13:03.063Z,18.65
2019-03-10T16:15:30.402Z,18.94
2019-03-10T16:17:56.592Z,19.01
2019-03-10T16:20:22.744Z,19.65
2019-03-10T16:22:48.896Z,19.69
2019-03-10T16:25:16.196Z,19.42
2019-03-10T16:27:42.371Z,19.43
2019-03-10T16:30:25.898Z,19.63
2019-03-10T16:32:52.074Z,19.82
2019-03-10T16:35:18.245Z,20.09
2019-03-10T16:37:44.433Z,20.10
2019-03-10T16:40:17.085Z,20.67
2019-03-10T16:42:43.255Z,20.74
2019-03-10T16:45:14.903Z,20.87
2019-03-10T16:47:41.067Z,20.79
2019-03-10T16:50:12.980Z,21.20
2019-03-10T16:52:39.187Z,21.18
2019-03-10T16:55:08.159Z,21.16
2019-03-10T16:57:36.119Z,21.04
2019-03-10T17:00:03.751Z,21.04
2019-03-10T17:02:31.208Z,20.90
2019-03-10T17:04:57.473Z,21.27
2019-03-10T17:07:23.664Z,21.47
2019-03-10T17:09:49.819Z,21.19
2019-03-10T17:12:15.985Z,21.56
2019-03-10T17:14:42.175Z,21.26
2019-03-10T17:17:08.334Z,21.24
2019-03-10T17:19:34.488Z,21.63
2019-03-10T17:22:00.719Z,21.16
2019-03-10T17:24:26.979Z,21.19
2019-03-10T17:26:53.144Z,20.86
2019-03-10T17:29:19.328Z,21.04
2019-03-10T17:31:45.587Z,20.70
2019-03-10T17:34:11.731Z,20.87
2019-03-10T17:36:37.935Z,21.21
2019-03-10T17:39:04.995Z,20.73
2019-03-10T17:41:31.187Z,20.11
2019-03-10T17:43:57.371Z,20.33
2019-03-10T17:46:23.540Z,19.89
2019-03-10T17:48:49.707Z,19.86
2019-03-10T17:51:15.904Z,19.72
2019-03-10T17:53:42.216Z,20.62
2019-03-10T17:56:08.437Z,20.12
2019-03-10T17:58:35.518Z,19.82
2019-03-10T18:01:01.750Z,19.61
2019-03-10T18:03:28.021Z,19.52
2019-03-10T18:05:54.218Z,19.53
2019-03-10T18:08:20.390Z,19.38
2019-03-10T18:10:46.540Z,19.46
2019-03-10T18:13:12.747Z,19.78
2019-03-10T18:15:38.997Z,19.99
2019-03-10T18:18:05.261Z,20.18
2019-03-10T18:20:31.556Z,19.86
2019-03-10T18:22:57.712Z,19.72
2019-03-10T18:25:23.874Z,20.22
2019-03-10T18:27:50.064Z,19.92
2019-03-10T18:30:20.080Z,20.14
2019-03-10T18:32:46.243Z,20.12
2019-03-10T18:35:12.427Z,19.34
2019-03-10T18:37:38.579Z,20.95
2019-03-10T18:40:10.956Z,20.04
2019-03-10T18:42:37.137Z,19.83
2019-03-10T18:45:06.505Z,20.52
2019-03-10T18:47:32.656Z,20.57
2019-03-10T18:49:58.850Z,19.88
2019-03-10T18:52:25.008Z,20.16
2019-03-10T18:54:51.189Z,19.99
2019-03-10T18:57:17.388Z,20.29
2019-03-10T18:59:43.553Z,20.12
2019-03-10T19:02:09.825Z,19.82
2019-03-10T19:04:36.002Z,19.56
2019-03-10T19:07:02.490Z,19.62
2019-03-10T19:09:28.648Z,19.45
2019-03-10T19:11:54.853Z,19.44
2019-03-10T19:14:21.109Z,19.32
2019-03-10T19:16:47.590Z,19.54
2019-03-10T19:19:13.896Z,19.66
2019-03-10T19:21:40.153Z,19.83
2019-03-10T19:24:06.307Z,19.78
2019-03-10T19:26:32.593Z,19.87
2019-03-10T19:28:58.755Z,19.62
2019-03-10T19:31:24.922Z,19.90
2019-03-10T19:33:51.208Z,19.57
2019-03-10T19:36:17.372Z,19.62
2019-03-10T19:38:43.539Z,19.61
2019-03-10T19:41:09.720Z,19.27
2019-03-10T19:43:35.993Z,19.83
2019-03-10T19:46:02.148Z,19.16
2019-03-10T19:48:28.345Z,19.17
2019-03-10T19:50:54.502Z,19.21
2019-03-10T19:53:20.755Z,18.74
2019-03-10T19:55:46.972Z,18.94
2019-03-10T19:58:13.127Z,18.86
2019-03-10T20:00:39.433Z,18.87
2019-03-10T20:03:05.631Z,19.09
2019-03-10T20:05:31.789Z,18.83
2019-03-10T20:07:57.968Z,18.85
2019-03-10T20:10:24.145Z,18.82
2019-03-10T20:12:50.308Z,18.85
2019-03-10T20:15:23.581Z,18.54
2019-03-10T20:17:49.770Z,18.92
2019-03-10T20:20:26.570Z,19.05
2019-03-10T20:22:52.925Z,18.76
2019-03-10T20:25:19.089Z,19.23
2019-03-10T20:27:45.248Z,18.99
2019-03-10T20:30:17.066Z,19.19
2019-03-10T20:32:43.226Z,18.81
2019-03-10T20:35:09.391Z,19.26
2019-03-10T20:37:35.683Z,18.81
2019-03-10T20:40:04.741Z,19.24
2019-03-10T20:42:30.895Z,18.86
2019-03-10T20:44:57.083Z,19.26
2019-03-10T20:47:23.239Z,18.82
2019-03-10T20:49:49.466Z,19.57
2019-03-10T20:52:15.793Z,19.56
2019-03-10T20:54:41.949Z,19.44
2019-03-10T20:57:08.099Z,19.47
2019-03-10T20:59:34.292Z,19.48
2019-03-10T21:02:00.447Z,19.45
2019-03-10T21:04:26.599Z,19.26
2019-03-10T21:06:52.887Z,19.11
2019-03-10T21:09:19.042Z,19.31
2019-03-10T21:11:45.315Z,19.06
2019-03-10T21:14:11.503Z,18.90
2019-03-10T21:16:37.667Z,18.84
2019-03-10T21:19:03.927Z,19.12
2019-03-10T21:21:30.133Z,19.39
2019-03-10T21:23:56.296Z,19.31
2019-03-10T21:26:22.452Z,18.83
2019-03-10T21:28:48.635Z,18.96
2019-03-10T21:31:14.792Z,19.25
2019-03-10T21:33:40.949Z,19.22
2019-03-10T21:36:07.135Z,19.37
2019-03-10T21:38:33.290Z,19.08
2019-03-10T21:40:59.544Z,19.55
2019-03-10T21:43:25.731Z,19.29
2019-03-10T21:45:51.888Z,19.46
2019-03-10T21:48:18.150Z,19.56
2019-03-10T21:50:44.327Z,18.89
2019-03-10T21:53:10.584Z,19.59
2019-03-10T21:55:36.852Z,18.94
2019-03-10T21:58:03.036Z,18.95
2019-03-10T22:00:29.358Z,18.86
2019-03-10T22:02:55.616Z,19.44
2019-03-10T22:05:22.703Z,19.42
2019-03-10T22:07:49.047Z,19.66
2019-03-10T22:10:26.977Z,19.75
2019-03-10T22:12:47.162Z,19.97
2019-03-10T22:15:17.541Z,19.55
2019-03-10T22:17:44.053Z,19.55
2019-03-10T22:20:14.456Z,19.10
2019-03-10T22:22:48.502Z,19.41
2019-03-10T22:25:13.002Z,19.06
2019-03-10T22:27:38.252Z,19.66
2019-03-10T22:30:08.017Z,19.77
2019-03-10T22:32:34.186Z,19.73
2019-03-10T22:35:00.424Z,19.06
2019-03-10T22:37:26.642Z,20.08
2019-03-10T22:39:52.799Z,20.39
2019-03-10T22:42:19.141Z,20.12
2019-03-10T22:44:46.625Z,20.42
2019-03-10T22:47:12.917Z,19.91
2019-03-10T22:49:39.224Z,19.49
2019-03-10T22:52:05.370Z,19.98
2019-03-10T22:54:31.532Z,20.61
2019-03-10T22:56:57.723Z,20.43
2019-03-10T22:59:23.883Z,20.83
2019-03-10T23:01:50.037Z,20.86
2019-03-10T23:04:17.811Z,20.80
2019-03-10T23:06:44.072Z,20.72
2019-03-10T23:09:10.320Z,20.36
2019-03-10T23:11:36.519Z,20.46
2019-03-10T23:14:02.775Z,20.61
2019-03-10T23:16:28.932Z,20.21
2019-03-10T23:18:55.129Z,20.10
2019-03-10T23:21:21.286Z,19.31
2019-03-10T23:23:47.443Z,19.13
2019-03-10T23:26:13.639Z,18.78
2019-03-10T23:28:39.894Z,18.80
2019-03-10T23:31:06.043Z,18.59
2019-03-10T23:33:32.250Z,18.67
2019-03-10T23:35:58.504Z,18.52
2019-03-10T23:38:24.662Z,18.46
2019-03-10T23:40:50.853Z,18.30
2019-03-10T23:43:17.009Z,18.14
2019-03-10T23:45:43.173Z,18.20
2019-03-10T23:48:09.462Z,17.97
2019-03-10T23:50:35.625Z,17.53
2019-03-10T23:53:01.830Z,17.51
2019-03-10T23:55:28.192Z,17.78
2019-03-10T23:57:54.345Z,17.58
